.
WxDataArchive / Data Records for 2014-02-28
2014-02-27 February 2014 2014-03-01

Data Records for Friday, 28 February 2014

Time	Temp	Chill	HIndex	Humid	Dewpt	 Wind 	HiWind	WindDir	Rain 	Barom
-----	----	-----	------	-----	-----	------	------	-------	-----	-----
00:00	-2.2	-2.2	-2.2	75	-8.1	0	0	---	0.00	30.256 
00:05	-2.4	-2.4	-2.4	75	-8.3	0	0	---	0.00	30.256 
00:10	-2.6	-2.6	-2.6	75	-8.5	0	0	---	0.00	30.256 
00:15	-2.6	-2.6	-2.6	75	-8.5	0	0	---	0.00	30.262 
00:20	-3.1	-3.1	-3.1	75	-9.0	0	0	---	0.00	30.262 
00:25	-3.1	-3.1	-3.1	75	-9.0	0	0	---	0.00	30.262 
00:30	-3.1	-3.1	-3.1	75	-9.0	0	0	---	0.00	30.262 
00:35	-3.1	-3.1	-3.1	75	-9.0	0	0	---	0.00	30.262 
00:40	-3.1	-3.1	-3.1	76	-8.7	0	0	---	0.00	30.262 
00:45	-3.1	-3.1	-3.1	76	-8.7	0	0	---	0.00	30.265 
00:50	-3.1	-3.1	-3.1	76	-8.7	0	0	---	0.00	30.265 
00:55	-3.1	-3.1	-3.1	76	-8.7	0	0	---	0.00	30.265 
01:00	-3.3	-3.3	-3.3	76	-8.9	0	0	---	0.00	30.270 
01:05	-3.3	-3.3	-3.3	76	-8.9	0	0	---	0.00	30.270 
01:10	-3.5	-3.5	-3.5	76	-9.1	0	0	---	0.00	30.270 
01:15	-3.7	-3.7	-3.7	76	-9.3	0	0	---	0.00	30.270 
01:20	-3.9	-3.9	-3.9	76	-9.5	0	0	---	0.00	30.270 
01:25	-4.1	-4.1	-4.1	76	-9.7	0	0	---	0.00	30.270 
01:30	-4.1	-4.1	-4.1	76	-9.7	0	0	---	0.00	30.271 
01:35	-4.3	-4.3	-4.3	76	-9.9	0	0	---	0.00	30.271 
01:40	-4.3	-4.3	-4.3	76	-9.9	0	0	---	0.00	30.271 
01:45	-4.3	-4.3	-4.3	76	-9.9	0	0	---	0.00	30.272 
01:50	-4.6	-4.6	-4.6	76	-10.2	0	0	---	0.00	30.272 
01:55	-4.6	-4.6	-4.6	76	-10.2	0	0	---	0.00	30.272 
02:00	-4.8	-4.8	-4.8	76	-10.4	0	0	---	0.00	30.271 
02:05	-5.0	-5.0	-5.0	76	-10.6	0	0	---	0.00	30.271 
02:10	-5.2	-5.2	-5.2	76	-10.8	0	0	---	0.00	30.271 
02:15	-5.2	-5.2	-5.2	76	-10.8	0	0	---	0.00	30.275 
02:20	-5.2	-5.2	-5.2	76	-10.8	0	0	---	0.00	30.275 
02:25	-5.2	-5.2	-5.2	76	-10.8	0	0	---	0.00	30.275 
02:30	-5.2	-5.2	-5.2	76	-10.8	0	0	---	0.00	30.273 
02:35	-5.4	-5.4	-5.4	76	-11.0	0	0	---	0.00	30.273 
02:40	-5.4	-5.4	-5.4	76	-11.0	0	0	---	0.00	30.273 
02:45	-5.4	-5.4	-5.4	76	-11.0	0	0	---	0.00	30.272 
02:50	-5.4	-5.4	-5.4	76	-11.0	0	0	---	0.00	30.272 
02:55	-5.4	-5.4	-5.4	76	-11.0	0	0	---	0.00	30.272 
03:00	-5.4	-5.4	-5.4	77	-10.7	0	0	---	0.00	30.277 
03:05	-5.4	-5.4	-5.4	76	-11.0	0	0	---	0.00	30.277 
03:10	-5.4	-5.4	-5.4	76	-11.0	0	0	---	0.00	30.277 
03:15	-5.6	-5.6	-5.6	76	-11.2	0	0	---	0.00	30.283 
03:20	-5.6	-5.6	-5.6	76	-11.2	0	0	---	0.00	30.283 
03:25	-5.6	-5.6	-5.6	76	-11.2	0	0	---	0.00	30.283 
03:30	-5.6	-5.6	-5.6	76	-11.2	0	0	---	0.00	30.284 
03:35	-5.9	-5.9	-5.9	76	-11.5	0	0	---	0.00	30.284 
03:40	-5.9	-5.9	-5.9	76	-11.5	0	0	---	0.00	30.284 
03:45	-5.9	-5.9	-5.9	76	-11.5	0	0	---	0.00	30.285 
03:50	-6.1	-6.1	-6.1	76	-11.7	0	0	---	0.00	30.285 
03:55	-6.1	-6.1	-6.1	76	-11.7	0	0	---	0.00	30.285 
04:00	-6.1	-6.1	-6.1	76	-11.7	0	0	---	0.00	30.287 
04:05	-6.1	-6.1	-6.1	76	-11.7	0	0	---	0.00	30.287 
04:10	-6.1	-6.1	-6.1	76	-11.7	0	0	---	0.00	30.287 
04:15	-6.3	-6.3	-6.3	76	-11.9	0	0	---	0.00	30.289 
04:20	-6.5	-6.5	-6.5	76	-12.0	0	0	---	0.00	30.289 
04:25	-6.5	-6.5	-6.5	76	-12.0	0	0	---	0.00	30.289 
04:30	-6.5	-6.5	-6.5	76	-12.0	0	0	---	0.00	30.290 
04:35	-6.8	-6.8	-6.8	76	-12.3	0	0	---	0.00	30.290 
04:40	-6.5	-6.5	-6.5	76	-12.0	0	0	---	0.00	30.290 
04:45	-6.5	-6.5	-6.5	75	-12.3	0	0	---	0.00	30.289 
04:50	-6.5	-6.5	-6.5	75	-12.3	0	0	---	0.00	30.289 
04:55	-6.5	-6.5	-6.5	76	-12.0	0	0	---	0.00	30.289 
05:00	-6.5	-6.5	-6.5	76	-12.0	0	0	---	0.00	30.298 
05:05	-6.3	-6.3	-6.3	76	-11.9	0	0	---	0.00	30.298 
05:10	-6.3	-6.3	-6.3	76	-11.9	0	0	---	0.00	30.298 
05:15	-6.5	-6.5	-6.5	75	-12.3	0	0	---	0.00	30.305 
05:20	-6.5	-6.5	-6.5	75	-12.3	0	0	---	0.00	30.305 
05:25	-6.5	-6.5	-6.5	76	-12.0	0	0	---	0.00	30.305 
05:30	-5.6	-5.6	-5.6	78	-10.7	0	1	315	0.00	30.303 
05:35	-4.6	-4.6	-4.6	78	-9.7	0	2	45	0.00	30.303 
05:40	-3.5	-3.5	-3.5	77	-8.9	0	1	45	0.00	30.303 
05:45	-2.6	-2.6	-2.6	77	-8.0	0	1	45	0.00	30.297 
05:50	-2.2	-2.2	-2.2	76	-7.9	0	0	---	0.00	30.297 
05:55	-2.2	-2.2	-2.2	75	-8.1	0	0	---	0.00	30.297 
06:00	-2.2	-2.2	-2.2	75	-8.1	0	0	---	0.00	30.301 
06:05	-2.2	-2.2	-2.2	74	-8.4	0	0	---	0.00	30.301 
06:10	-2.2	-2.2	-2.2	74	-8.4	0	0	---	0.00	30.301 
06:15	-2.4	-2.4	-2.4	74	-8.6	0	0	---	0.00	30.303 
06:20	-2.6	-2.6	-2.6	74	-8.8	0	0	---	0.00	30.303 
06:25	-2.6	-2.6	-2.6	74	-8.8	0	0	---	0.00	30.303 
06:30	-2.4	-2.4	-2.4	74	-8.6	0	0	---	0.00	30.311 
06:35	-2.4	-2.4	-2.4	74	-8.6	0	1	45	0.00	30.311 
06:40	-2.2	-2.2	-2.2	74	-8.4	0	0	---	0.00	30.311 
06:45	-2.2	-2.2	-2.2	74	-8.4	0	0	---	0.00	30.318 
06:50	-2.2	-2.2	-2.2	74	-8.4	0	0	---	0.00	30.318 
06:55	-2.4	-2.4	-2.4	73	-8.9	0	0	---	0.00	30.318 
07:00	-2.6	-2.6	-2.6	73	-9.1	0	0	---	0.00	30.319 
07:05	-2.8	-2.8	-2.8	73	-9.3	0	0	---	0.00	30.319 
07:10	-2.8	-2.8	-2.8	74	-9.0	0	0	---	0.00	30.319 
07:15	-2.8	-2.8	-2.8	74	-9.0	0	0	---	0.00	30.323 
07:20	-3.1	-3.1	-3.1	74	-9.3	0	0	---	0.00	30.323 
07:25	-3.1	-3.1	-3.1	74	-9.3	0	0	---	0.00	30.323 
07:30	-3.1	-3.1	-3.1	75	-9.0	0	1	45	0.00	30.324 
07:35	-2.4	-2.4	-2.4	75	-8.3	0	0	---	0.00	30.324 
07:40	-1.8	-1.8	-1.8	76	-7.5	0	0	---	0.00	30.324 
07:45	-1.0	-1.0	-1.0	76	-6.7	0	1	45	0.00	30.329 
07:50	0.0	0.0	0.0	75	-6.0	0	2	45	0.00	30.329 
07:55	0.3	0.3	0.3	74	-6.0	0	2	45	0.00	30.329 
08:00	0.9	0.9	0.9	74	-5.4	0	1	45	0.00	30.327 
08:05	1.7	1.7	1.7	73	-4.9	0	2	45	0.00	30.327 
08:10	2.0	2.0	2.0	71	-5.2	1	3	45	0.00	30.327 
08:15	2.6	2.6	2.6	71	-4.6	1	2	45	0.00	30.334 
08:20	3.0	3.0	3.0	70	-4.5	1	3	45	0.00	30.334 
08:25	3.4	3.4	3.4	69	-4.4	2	5	45	0.00	30.334 
08:30	3.7	3.7	3.7	68	-4.5	1	3	90	0.00	30.329 
08:35	4.1	4.1	4.1	66	-4.7	1	4	90	0.00	30.329 
08:40	4.7	4.7	4.7	65	-4.4	2	4	90	0.00	30.329 
08:45	5.0	5.0	5.0	63	-4.8	2	9	90	0.00	30.327 
08:50	5.8	5.8	5.8	60	-5.1	2	7	90	0.00	30.327 
08:55	6.1	6.1	6.1	59	-5.1	2	5	90	0.00	30.327 
09:00	6.3	6.3	6.3	58	-5.3	2	7	90	0.00	30.333 
09:05	6.9	6.9	6.9	58	-4.7	1	4	112	0.00	30.333 
09:10	7.2	7.2	7.2	57	-4.8	2	5	112	0.00	30.333 
09:15	7.6	7.6	7.6	57	-4.4	1	6	90	0.00	30.336 
09:20	8.3	8.3	8.3	56	-4.1	1	4	90	0.00	30.336 
09:25	9.0	9.0	9.0	55	-3.8	1	3	90	0.00	30.336 
09:30	9.5	9.5	9.5	53	-4.1	2	5	112	0.00	30.330 
09:35	9.9	9.9	9.9	53	-3.8	2	6	90	0.00	30.330 
09:40	9.7	9.7	9.7	53	-4.0	3	9	112	0.00	30.330 
09:45	10.0	10.0	10.0	52	-4.1	2	5	90	0.00	30.333 
09:50	10.5	10.5	10.5	51	-4.0	2	5	68	0.00	30.333 
09:55	10.9	10.9	10.9	50	-4.0	2	5	112	0.00	30.333 
10:00	11.6	11.6	11.6	49	-3.8	1	4	112	0.00	30.334 
10:05	11.9	11.9	11.9	48	-4.0	2	6	90	0.00	30.334 
10:10	11.9	11.9	11.9	48	-4.0	2	9	90	0.00	30.334 
10:15	11.9	11.9	11.9	50	-3.1	1	5	112	0.00	30.333 
10:20	12.8	12.8	12.8	50	-2.3	2	5	112	0.00	30.333 
10:25	12.9	12.9	12.9	49	-2.6	2	5	112	0.00	30.333 
10:30	12.9	12.9	12.9	49	-2.6	2	6	90	0.00	30.334 
10:35	13.1	13.1	13.1	49	-2.4	3	5	90	0.00	30.334 
10:40	13.6	13.6	13.6	50	-1.5	2	5	112	0.00	30.334 
10:45	13.6	13.6	13.6	48	-2.4	3	8	112	0.00	30.329 
10:50	13.8	13.8	13.8	48	-2.2	3	5	90	0.00	30.329 
10:55	14.3	14.3	14.3	47	-2.2	2	6	90	0.00	30.329 
11:00	14.8	14.8	14.8	47	-1.7	1	4	112	0.00	30.332 
11:05	15.1	15.1	15.1	47	-1.5	2	5	112	0.00	30.332 
11:10	15.2	15.2	15.2	47	-1.4	2	6	112	0.00	30.332 
11:15	15.1	15.1	15.1	47	-1.5	3	6	90	0.00	30.334 
11:20	15.1	15.1	15.1	47	-1.5	2	5	90	0.00	30.334 
11:25	15.1	15.1	15.1	48	-1.0	2	9	90	0.00	30.334 
11:30	15.4	15.4	15.4	47	-1.2	2	6	112	0.00	30.325 
11:35	15.7	15.7	15.7	48	-0.5	2	5	112	0.00	30.325 
11:40	15.7	15.7	15.7	47	-0.9	2	6	90	0.00	30.325 
11:45	15.9	15.9	15.9	48	-0.3	2	6	112	0.00	30.311 
11:50	16.4	16.4	16.4	47	-0.3	2	6	112	0.00	30.311 
11:55	16.9	16.9	16.9	47	0.2	2	5	90	0.00	30.311 
12:00	17.2	17.2	17.2	46	0.0	2	6	112	0.00	30.309 
12:05	17.0	17.0	17.0	47	0.3	3	6	112	0.00	30.309 
12:10	17.2	17.2	17.2	47	0.5	1	4	112	0.00	30.309 
12:15	17.3	17.3	17.3	47	0.6	3	9	90	0.00	30.296 
12:20	17.0	10.7	17.0	47	0.3	4	10	90	0.00	30.296 
12:25	16.7	9.1	16.7	49	0.9	5	10	112	0.00	30.296 
12:30	17.0	17.0	17.0	47	0.3	3	7	90	0.00	30.294 
12:35	17.5	17.5	17.5	48	1.2	2	9	90	0.00	30.294 
12:40	17.8	17.8	17.8	46	0.6	3	9	112	0.00	30.294 
12:45	17.5	11.3	17.5	47	0.7	4	9	90	0.00	30.291 
12:50	17.8	17.8	17.8	47	1.0	2	6	135	0.00	30.291 
12:55	18.3	18.3	18.3	46	1.0	2	7	112	0.00	30.291 
13:00	18.3	18.3	18.3	48	1.9	2	7	90	0.00	30.279 
13:05	18.3	12.3	18.3	46	1.0	4	9	90	0.00	30.279 
13:10	18.4	18.4	18.4	49	2.5	1	5	112	0.00	30.279 
13:15	18.9	18.9	18.9	47	2.0	2	6	90	0.00	30.273 
13:20	19.4	19.4	19.4	48	3.0	2	6	90	0.00	30.273 
13:25	19.5	19.5	19.5	46	2.1	3	8	90	0.00	30.273 
13:30	19.2	19.2	19.2	48	2.8	3	9	90	0.00	30.261 
13:35	19.4	19.4	19.4	46	2.0	3	9	112	0.00	30.261 
13:40	19.4	19.4	19.4	47	2.5	3	7	90	0.00	30.261 
13:45	19.7	19.7	19.7	46	2.3	2	5	90	0.00	30.250 
13:50	20.0	20.0	20.0	46	2.6	2	9	90	0.00	30.250 
13:55	20.2	20.2	20.2	46	2.8	3	9	90	0.00	30.250 
14:00	20.5	20.5	20.5	46	3.0	1	4	112	0.00	30.247 
14:05	21.0	21.0	21.0	46	3.5	2	6	90	0.00	30.247 
14:10	20.8	20.8	20.8	45	2.8	3	7	112	0.00	30.247 
14:15	21.0	21.0	21.0	45	3.0	1	5	90	0.00	30.235 
14:20	21.1	21.1	21.1	45	3.1	2	7	90	0.00	30.235 
14:25	21.3	21.3	21.3	44	2.8	2	7	90	0.00	30.235 
14:30	21.6	21.6	21.6	45	3.6	2	7	90	0.00	30.229 
14:35	21.8	21.8	21.8	45	3.8	3	7	90	0.00	30.229 
14:40	22.1	22.1	22.1	45	4.0	2	6	90	0.00	30.229 
14:45	22.2	22.2	22.2	43	3.1	3	5	90	0.00	30.226 
14:50	22.4	22.4	22.4	43	3.3	2	4	90	0.00	30.226 
14:55	22.4	22.4	22.4	43	3.3	2	7	90	0.00	30.226 
15:00	22.5	22.5	22.5	44	3.9	3	7	90	0.00	30.215 
15:05	22.9	22.9	22.9	44	4.3	2	6	112	0.00	30.215 
15:10	23.0	23.0	23.0	44	4.4	3	9	90	0.00	30.215 
15:15	23.0	23.0	23.0	43	3.9	3	7	90	0.00	30.211 
15:20	23.2	23.2	23.2	43	4.1	2	5	112	0.00	30.211 
15:25	23.3	23.3	23.3	45	5.1	2	7	90	0.00	30.211 
15:30	23.6	23.6	23.6	45	5.4	2	5	90	0.00	30.210 
15:35	23.8	23.8	23.8	42	4.1	2	6	112	0.00	30.210 
15:40	24.1	24.1	24.1	43	4.9	2	5	112	0.00	30.210 
15:45	24.2	24.2	24.2	42	4.5	2	5	112	0.00	30.203 
15:50	24.4	24.4	24.4	43	5.2	2	5	112	0.00	30.203 
15:55	24.5	24.5	24.5	43	5.2	3	6	112	0.00	30.203 
16:00	24.7	24.7	24.7	41	4.4	2	4	90	0.00	30.191 
16:05	24.8	24.8	24.8	43	5.5	1	3	112	0.00	30.191 
16:10	25.1	25.1	25.1	43	5.8	2	7	90	0.00	30.191 
16:15	25.1	25.1	25.1	42	5.3	2	6	90	0.00	30.179 
16:20	25.4	25.4	25.4	41	5.0	1	4	112	0.00	30.179 
16:25	25.6	25.6	25.6	40	4.7	2	9	112	0.00	30.179 
16:30	25.7	25.7	25.7	40	4.8	2	5	90	0.00	30.165 
16:35	25.7	25.7	25.7	40	4.8	2	10	90	0.00	30.165 
16:40	25.7	25.7	25.7	40	4.8	2	4	90	0.00	30.165 
16:45	25.7	25.7	25.7	40	4.8	2	5	112	0.00	30.164 
16:50	25.8	25.8	25.8	43	6.4	2	5	90	0.00	30.164 
16:55	25.8	25.8	25.8	43	6.4	2	7	90	0.00	30.164 
17:00	26.0	26.0	26.0	43	6.6	1	5	90	0.00	30.156 
17:05	26.0	26.0	26.0	42	6.1	2	8	90	0.00	30.156 
17:10	26.1	26.1	26.1	42	6.2	1	4	90	0.00	30.156 
17:15	26.1	26.1	26.1	41	5.7	1	3	112	0.00	30.143 
17:20	26.1	26.1	26.1	42	6.2	1	4	112	0.00	30.143 
17:25	26.1	26.1	26.1	42	6.2	1	4	112	0.00	30.143 
17:30	26.3	26.3	26.3	42	6.4	1	4	112	0.00	30.141 
17:35	26.3	26.3	26.3	43	6.9	1	2	112	0.00	30.141 
17:40	26.3	26.3	26.3	43	6.9	2	4	112	0.00	30.141 
17:45	26.1	26.1	26.1	45	7.7	1	2	112	0.00	30.141 
17:50	26.0	26.0	26.0	44	7.1	1	3	112	0.00	30.141 
17:55	26.0	26.0	26.0	45	7.6	2	4	112	0.00	30.141 
18:00	25.8	25.8	25.8	46	7.9	0	1	112	0.00	30.137 
18:05	25.6	25.6	25.6	46	7.7	1	2	112	0.00	30.137 
18:10	25.4	25.4	25.4	46	7.5	1	3	112	0.00	30.137 
18:15	25.4	25.4	25.4	46	7.5	1	4	112	0.00	30.141 
18:20	25.3	25.3	25.3	47	7.9	1	3	112	0.00	30.141 
18:25	25.1	25.1	25.1	48	8.2	1	4	112	0.00	30.141 
18:30	25.0	25.0	25.0	49	8.6	0	1	112	0.00	30.138 
18:35	24.7	24.7	24.7	50	8.7	0	2	112	0.00	30.138 
18:40	24.5	24.5	24.5	50	8.6	0	2	112	0.00	30.138 
18:45	24.2	24.2	24.2	51	8.7	0	1	112	0.00	30.132 
18:50	24.1	24.1	24.1	51	8.6	0	2	112	0.00	30.132 
18:55	23.9	23.9	23.9	51	8.4	0	1	112	0.00	30.132 
19:00	23.6	23.6	23.6	51	8.2	0	2	112	0.00	30.131 
19:05	23.6	23.6	23.6	51	8.2	0	2	112	0.00	30.131 
19:10	23.6	23.6	23.6	51	8.2	0	1	112	0.00	30.131 
19:15	23.6	23.6	23.6	51	8.2	0	0	---	0.00	30.134 
19:20	23.3	23.3	23.3	52	8.3	0	0	---	0.00	30.134 
19:25	23.2	23.2	23.2	52	8.2	0	0	---	0.00	30.134 
19:30	23.0	23.0	23.0	52	8.0	0	0	---	0.00	30.134 
19:35	22.9	22.9	22.9	53	8.4	0	0	---	0.00	30.134 
19:40	22.7	22.7	22.7	53	8.2	0	1	112	0.00	30.134 
19:45	22.5	22.5	22.5	53	8.0	0	1	112	0.00	30.134 
19:50	22.4	22.4	22.4	53	7.9	0	0	---	0.00	30.134 
19:55	22.2	22.2	22.2	53	7.7	0	0	---	0.00	30.134 
20:00	22.2	22.2	22.2	54	8.1	0	0	---	0.00	30.138 
20:05	22.2	22.2	22.2	54	8.1	0	0	---	0.00	30.138 
20:10	22.4	22.4	22.4	54	8.3	0	1	112	0.00	30.138 
20:15	22.5	22.5	22.5	54	8.4	0	1	112	0.00	30.124 
20:20	22.5	22.5	22.5	54	8.4	0	1	112	0.00	30.124 
20:25	22.5	22.5	22.5	54	8.4	0	0	---	0.00	30.124 
20:30	22.4	22.4	22.4	55	8.7	0	1	112	0.00	30.122 
20:35	22.4	22.4	22.4	55	8.7	0	1	112	0.00	30.122 
20:40	22.5	22.5	22.5	54	8.4	0	1	112	0.00	30.122 
20:45	22.5	22.5	22.5	54	8.4	0	1	112	0.00	30.120 
20:50	22.5	22.5	22.5	54	8.4	0	0	---	0.00	30.120 
20:55	22.5	22.5	22.5	54	8.4	0	1	112	0.00	30.120 
21:00	22.5	22.5	22.5	54	8.4	0	1	112	0.00	30.122 
21:05	22.5	22.5	22.5	54	8.4	0	1	112	0.00	30.122 
21:10	22.7	22.7	22.7	54	8.6	0	1	112	0.00	30.122 
21:15	22.9	22.9	22.9	54	8.8	0	1	112	0.00	30.114 
21:20	22.9	22.9	22.9	54	8.8	0	1	112	0.00	30.114 
21:25	22.7	22.7	22.7	54	8.6	0	1	112	0.00	30.114 
21:30	22.7	22.7	22.7	54	8.6	0	1	112	0.00	30.114 
21:35	22.7	22.7	22.7	54	8.6	0	1	112	0.00	30.114 
21:40	22.7	22.7	22.7	54	8.6	0	1	112	0.00	30.114 
21:45	22.7	22.7	22.7	54	8.6	0	1	112	0.00	30.118 
21:50	22.5	22.5	22.5	54	8.4	0	0	---	0.00	30.118 
21:55	22.4	22.4	22.4	55	8.7	0	0	---	0.00	30.118 
22:00	22.2	22.2	22.2	55	8.5	0	0	---	0.00	30.117 
22:05	22.2	22.2	22.2	56	8.9	0	0	---	0.00	30.117 
22:10	22.1	22.1	22.1	55	8.4	0	0	---	0.00	30.117 
22:15	21.9	21.9	21.9	56	8.6	0	0	---	0.00	30.116 
22:20	21.9	21.9	21.9	56	8.6	0	1	112	0.00	30.116 
22:25	21.9	21.9	21.9	56	8.6	0	0	---	0.00	30.116 
22:30	21.8	21.8	21.8	57	8.9	0	0	---	0.00	30.115 
22:35	21.8	21.8	21.8	57	8.9	0	1	112	0.00	30.115 
22:40	21.8	21.8	21.8	57	8.9	0	1	112	0.00	30.115 
22:45	21.8	21.8	21.8	58	9.3	0	1	112	0.00	30.114 
22:50	21.8	21.8	21.8	57	8.9	0	0	---	0.00	30.114 
22:55	21.9	21.9	21.9	58	9.4	0	0	---	0.00	30.114 
23:00	21.8	21.8	21.8	58	9.3	0	0	---	0.00	30.114 
23:05	21.4	21.4	21.4	60	9.7	0	0	---	0.00	30.114 
23:10	21.1	21.1	21.1	61	9.8	0	0	---	0.00	30.114 
23:15	20.6	20.6	20.6	62	9.7	0	0	---	0.00	30.109 
23:20	20.2	20.2	20.2	62	9.3	0	0	---	0.00	30.109 
23:25	19.9	19.9	19.9	62	9.0	0	0	---	0.00	30.109 
23:30	19.4	19.4	19.4	62	8.5	0	0	---	0.00	30.110 
23:35	19.1	19.1	19.1	64	9.0	0	0	---	0.00	30.110 
23:40	18.6	18.6	18.6	65	8.8	0	1	112	0.00	30.110 
23:45	18.3	18.3	18.3	66	8.9	0	1	112	0.00	30.102 
23:50	18.1	18.1	18.1	67	9.0	0	0	---	0.00	30.102 
23:55	18.0	18.0	18.0	67	8.9	0	0	---	0.00	30.102 

CoCoRaHS
IN-AL-39
A2 Web Hosting
Creative Commons License
GoDaddy
search engine by freefind advanced

loaded 2018-11-13 22:24:43 • last modified 2010-11-18 10:43:29
Privacy PolicyDisclaimer
• wx.awcolley.com is powered by PmWiki v.2002016 •
• all content (unless otherwise noted) © 2018 A W Colley